Time;durP1;ratioP1;P1;durP2;ratioP2;P2;SDS_P1;SDS_P2;PMS_P1;PMS_P2;Temp;Humidity;BMP_temperature;BMP_pressure;BME280_temperature;BME280_humidity;BME280_pressure;Samples;Min_cycle;Max_cycle;Signal;HPM_P1;HPM_P2
2023/12/08 00:00:26;;;;;;;25.83;3.70;;;8.90;99.90;;;;;;5047394;28;20519;-77
2023/12/08 00:02:52;;;;;;;32.50;4.27;;;;;;;;;;5048851;28;20647;-75
2023/12/08 00:05:18;;;;;;;29.57;4.27;;;8.80;99.90;;;;;;5046281;28;20185;-76
2023/12/08 00:07:44;;;;;;;21.17;3.57;;;;;;;;;;5047374;28;20276;-77
2023/12/08 00:10:10;;;;;;;27.63;4.10;;;8.40;99.90;;;;;;5045320;28;20257;-77
2023/12/08 00:12:35;;;;;;;27.50;3.80;;;8.40;99.90;;;;;;5050444;28;20268;-77
2023/12/08 00:15:01;;;;;;;28.97;4.37;;;8.30;99.90;;;;;;5045479;28;20619;-77
2023/12/08 00:17:27;;;;;;;26.20;4.00;;;8.30;99.90;;;;;;5046833;28;20215;-78
2023/12/08 00:19:53;;;;;;;36.10;4.10;;;8.20;99.90;;;;;;5048015;28;20178;-76
2023/12/08 00:22:19;;;;;;;26.50;4.13;;;8.30;99.90;;;;;;5048104;28;20280;-76
2023/12/08 00:24:45;;;;;;;27.20;4.07;;;8.10;99.90;;;;;;5045566;28;20563;-77
2023/12/08 00:27:10;;;;;;;25.87;4.17;;;7.90;99.90;;;;;;5043744;28;20181;-76
2023/12/08 00:29:36;;;;;;;30.17;3.67;;;8.30;99.90;;;;;;5049700;28;20306;-77
2023/12/08 00:32:02;;;;;;;28.17;4.10;;;8.10;99.90;;;;;;5045926;28;20177;-76
2023/12/08 00:34:27;;;;;;;26.37;3.90;;;8.30;99.90;;;;;;5051615;28;20562;-77
2023/12/08 00:36:53;;;;;;;22.47;3.37;;;8.10;99.90;;;;;;5054634;28;20279;-76
2023/12/08 00:39:18;;;;;;;25.10;3.43;;;7.90;99.90;;;;;;5050623;28;20192;-76
2023/12/08 00:41:44;;;;;;;31.17;4.10;;;8.20;99.90;;;;;;5045371;28;20648;-77
2023/12/08 00:44:11;;;;;;;28.77;3.83;;;;;;;;;;5045098;28;20661;-76
2023/12/08 00:46:36;;;;;;;23.57;3.50;;;8.00;99.90;;;;;;5044492;28;20173;-76
2023/12/08 00:49:02;;;;;;;25.43;3.53;;;7.90;99.90;;;;;;5026767;28;20231;-77
2023/12/08 00:51:28;;;;;;;20.43;3.07;;;7.70;99.90;;;;;;5048396;28;20294;-76
2023/12/08 00:53:54;;;;;;;19.93;3.10;;;;;;;;;;5046230;28;20176;-77
2023/12/08 00:56:20;;;;;;;19.80;3.33;;;;;;;;;;5045795;28;20205;-77
2023/12/08 00:58:45;;;;;;;29.27;3.80;;;7.70;99.90;;;;;;5052274;28;20185;-76
2023/12/08 01:01:11;;;;;;;22.93;3.73;;;7.70;99.90;;;;;;5061030;28;20174;-76
2023/12/08 01:03:37;;;;;;;23.73;3.60;;;7.60;99.90;;;;;;5044947;28;20547;-77
2023/12/08 01:06:03;;;;;;;27.73;3.53;;;7.50;99.90;;;;;;5050297;28;20188;-78
2023/12/08 01:08:29;;;;;;;29.73;3.93;;;8.00;99.90;;;;;;5045150;28;20192;-77
2023/12/08 01:10:54;;;;;;;26.83;3.57;;;7.70;99.90;;;;;;5046248;28;20690;-78
2023/12/08 01:13:20;;;;;;;23.37;3.53;;;7.70;99.90;;;;;;5044954;28;20267;-78
2023/12/08 01:15:47;;;;;;;24.60;4.00;;;7.50;99.90;;;;;;5046102;28;20678;-78
2023/12/08 01:18:13;;;;;;;30.27;4.03;;;7.70;99.90;;;;;;5047415;28;20224;-78
2023/12/08 01:20:39;;;;;;;22.50;3.17;;;7.60;99.90;;;;;;5046323;28;20693;-78
2023/12/08 01:23:05;;;;;;;20.37;2.93;;;;;;;;;;5044875;28;20181;-77
2023/12/08 01:25:30;;;;;;;34.47;4.13;;;7.40;99.90;;;;;;5044852;28;20208;-77
2023/12/08 01:27:56;;;;;;;20.10;3.43;;;;;;;;;;5037566;28;20182;-78
2023/12/08 01:30:22;;;;;;;18.07;2.53;;;7.80;99.90;;;;;;5043398;28;20174;-78
2023/12/08 01:32:48;;;;;;;26.13;3.67;;;7.60;99.90;;;;;;5041900;28;20697;-79
2023/12/08 01:35:14;;;;;;;23.67;3.80;;;7.60;99.90;;;;;;5017300;28;20185;-79
2023/12/08 01:37:39;;;;;;;24.90;4.63;;;7.70;99.90;;;;;;5049389;28;20216;-79
2023/12/08 01:40:06;;;;;;;25.37;3.63;;;7.90;99.90;;;;;;5056711;28;20537;-79
2023/12/08 01:42:32;;;;;;;23.40;3.10;;;7.60;99.90;;;;;;5051892;28;20232;-78
2023/12/08 01:44:58;;;;;;;23.23;3.10;;;7.60;99.90;;;;;;5045694;28;20181;-79
2023/12/08 01:47:23;;;;;;;22.37;3.37;;;7.70;99.90;;;;;;5046295;28;20769;-79
2023/12/08 01:49:51;;;;;;;24.03;3.67;;;7.70;99.90;;;;;;5048178;28;20670;-79
2023/12/08 01:52:22;;;;;;;17.10;2.90;;;7.60;99.90;;;;;;5045222;28;20540;-79
2023/12/08 01:54:50;;;;;;;24.80;3.33;;;7.70;99.90;;;;;;5045312;28;20199;-79
2023/12/08 01:57:17;;;;;;;22.90;3.20;;;;;;;;;;5048179;28;20305;-77
2023/12/08 01:59:43;;;;;;;20.43;3.20;;;7.60;99.90;;;;;;5028085;28;20260;-77
2023/12/08 02:02:08;;;;;;;18.90;3.67;;;7.40;99.90;;;;;;5047786;28;20195;-76
2023/12/08 02:04:34;;;;;;;30.03;3.30;;;7.60;99.90;;;;;;5048990;28;20177;-76
2023/12/08 02:07:00;;;;;;;24.13;3.13;;;7.60;99.90;;;;;;5044109;28;20193;-77
2023/12/08 02:09:26;;;;;;;23.20;3.47;;;;;;;;;;5045720;28;20280;-76
2023/12/08 02:11:52;;;;;;;18.30;3.37;;;7.40;99.90;;;;;;5046200;28;20608;-76
2023/12/08 02:14:17;;;;;;;21.87;3.17;;;7.50;99.90;;;;;;5047046;28;20224;-76
2023/12/08 02:16:53;;;;;;;22.30;3.57;;;7.40;99.90;;;;;;5039480;28;20619;-75
2023/12/08 02:19:19;;;;;;;17.57;3.10;;;7.40;99.90;;;;;;5027930;28;20181;-75
2023/12/08 02:21:45;;;;;;;20.70;3.43;;;6.70;99.90;;;;;;5047449;28;20188;-75
2023/12/08 02:24:11;;;;;;;17.30;3.33;;;7.40;99.90;;;;;;5045368;28;20234;-75
2023/12/08 02:26:37;;;;;;;21.33;3.23;;;7.30;99.90;;;;;;5044757;28;20640;-75
2023/12/08 02:29:07;;;;;;;19.23;3.13;;;7.30;99.90;;;;;;5048209;28;20181;-75
2023/12/08 02:31:41;;;;;;;17.33;3.00;;;7.00;99.90;;;;;;5045691;28;20206;-75
2023/12/08 02:34:08;;;;;;;21.47;3.13;;;7.40;99.90;;;;;;5044509;28;20201;-77
2023/12/08 02:36:35;;;;;;;28.20;3.63;;;7.70;99.90;;;;;;5052311;28;20227;-76
2023/12/08 02:39:01;;;;;;;25.10;3.03;;;7.40;99.90;;;;;;5055271;28;20184;-75
2023/12/08 02:41:27;;;;;;;24.97;3.13;;;7.60;99.90;;;;;;5059198;28;20239;-76
2023/12/08 02:43:52;;;;;;;21.70;3.30;;;7.90;99.90;;;;;;5048395;28;20648;-76
2023/12/08 02:46:19;;;;;;;18.10;2.93;;;;;;;;;;5049013;28;20189;-76
2023/12/08 02:48:44;;;;;;;16.13;2.60;;;7.90;99.90;;;;;;5048613;28;20249;-76
2023/12/08 02:51:10;;;;;;;18.27;3.03;;;7.60;99.90;;;;;;5032287;28;20275;-77
2023/12/08 02:53:36;;;;;;;23.40;3.43;;;7.60;99.90;;;;;;5050330;28;20672;-76
2023/12/08 02:56:01;;;;;;;23.90;3.23;;;8.00;99.90;;;;;;5048607;28;20231;-76
2023/12/08 02:58:27;;;;;;;20.03;2.60;;;7.70;99.90;;;;;;5050466;28;20243;-77
2023/12/08 03:00:52;;;;;;;15.47;2.47;;;7.60;99.90;;;;;;5048315;28;20255;-76
2023/12/08 03:03:18;;;;;;;22.60;2.90;;;7.60;99.90;;;;;;5051346;28;20213;-76
2023/12/08 03:05:44;;;;;;;22.63;3.10;;;7.50;99.90;;;;;;5047142;28;20177;-76
2023/12/08 03:08:10;;;;;;;26.17;3.13;;;;;;;;;;5048238;28;20177;-76
2023/12/08 03:10:35;;;;;;;17.90;2.97;;;7.90;99.90;;;;;;5049940;28;20663;-76
2023/12/08 03:13:01;;;;;;;20.10;3.00;;;7.50;99.90;;;;;;5048361;28;20205;-77
2023/12/08 03:15:27;;;;;;;20.27;3.07;;;7.80;99.90;;;;;;5048239;28;20251;-76
2023/12/08 03:17:52;;;;;;;22.23;3.47;;;7.90;99.90;;;;;;5032306;28;20699;-76
2023/12/08 03:20:18;;;;;;;19.97;2.73;;;7.70;99.90;;;;;;5046624;28;20705;-78
2023/12/08 03:22:44;;;;;;;19.17;2.97;;;7.70;99.90;;;;;;5048167;28;20181;-78
2023/12/08 03:25:09;;;;;;;19.27;3.13;;;7.70;99.90;;;;;;5050334;28;20259;-78
2023/12/08 03:27:35;;;;;;;18.33;2.93;;;7.40;99.90;;;;;;5047417;28;20250;-78
2023/12/08 03:30:00;;;;;;;21.03;3.00;;;7.10;99.90;;;;;;5047800;28;20207;-77
2023/12/08 03:32:26;;;;;;;20.67;2.50;;;7.20;99.90;;;;;;5046840;28;20178;-78
2023/12/08 03:34:52;;;;;;;28.10;3.33;;;7.20;99.90;;;;;;5048185;28;20173;-77
2023/12/08 03:37:17;;;;;;;19.27;2.87;;;7.30;99.90;;;;;;5046498;28;20213;-77
2023/12/08 03:39:44;;;;;;;21.40;3.07;;;7.40;99.90;;;;;;5048175;28;20185;-77
2023/12/08 03:42:10;;;;;;;21.47;3.10;;;7.40;99.90;;;;;;5046338;28;20222;-77
2023/12/08 03:44:36;;;;;;;21.03;3.20;;;7.00;99.90;;;;;;5029379;28;20549;-77
2023/12/08 03:47:02;;;;;;;23.87;3.23;;;;;;;;;;5042026;28;20185;-76
2023/12/08 03:49:28;;;;;;;28.13;3.43;;;;;;;;;;5045372;28;20207;-77
2023/12/08 03:51:53;;;;;;;20.33;3.13;;;7.20;99.90;;;;;;5049807;28;20209;-76
2023/12/08 03:54:20;;;;;;;20.53;3.00;;;6.90;99.90;;;;;;5029363;28;20213;-77
2023/12/08 03:56:46;;;;;;;20.37;3.13;;;7.10;99.90;;;;;;5047209;28;20209;-76
2023/12/08 03:59:12;;;;;;;15.83;2.67;;;7.00;99.90;;;;;;5057627;28;20191;-76
2023/12/08 04:01:39;;;;;;;16.40;2.70;;;;;;;;;;5058349;28;20539;-76
2023/12/08 04:04:05;;;;;;;28.73;3.50;;;7.40;99.90;;;;;;5046959;28;20644;-77
2023/12/08 04:06:31;;;;;;;20.20;2.93;;;7.40;99.90;;;;;;5048444;28;20183;-76
2023/12/08 04:08:56;;;;;;;19.97;2.73;;;7.20;99.90;;;;;;5053745;28;20190;-77
2023/12/08 04:11:22;;;;;;;19.17;2.70;;;;;;;;;;5061720;28;20165;-77
2023/12/08 04:13:49;;;;;;;10.57;2.57;;;;;;;;;;5050271;28;20178;-75
2023/12/08 04:16:15;;;;;;;20.70;3.37;;;7.10;99.90;;;;;;5049251;28;20275;-76
2023/12/08 04:18:40;;;;;;;17.93;2.67;;;7.30;99.90;;;;;;5045457;28;20185;-76
2023/12/08 04:21:06;;;;;;;21.20;2.83;;;7.50;99.90;;;;;;5047566;28;20181;-76
2023/12/08 04:23:32;;;;;;;22.00;2.63;;;7.40;99.90;;;;;;5049875;28;20182;-77
2023/12/08 04:25:57;;;;;;;22.53;2.57;;;7.40;99.90;;;;;;5050129;28;20196;-76
2023/12/08 04:28:23;;;;;;;19.23;2.67;;;7.20;99.90;;;;;;5050353;28;20231;-76
2023/12/08 04:30:49;;;;;;;22.43;3.27;;;7.20;99.90;;;;;;5029447;28;20174;-76
2023/12/08 04:33:14;;;;;;;15.83;2.33;;;;;;;;;;5050117;28;20294;-76
2023/12/08 04:35:40;;;;;;;16.13;2.60;;;7.00;99.90;;;;;;5044118;28;20226;-76
2023/12/08 04:38:06;;;;;;;19.13;2.90;;;;;;;;;;5045346;28;20676;-75
2023/12/08 04:40:32;;;;;;;18.20;2.70;;;7.20;99.90;;;;;;5047787;28;20177;-75
2023/12/08 04:42:58;;;;;;;25.57;3.37;;;;;;;;;;5026324;28;20224;-76
2023/12/08 04:45:24;;;;;;;19.13;2.83;;;7.40;99.90;;;;;;5048253;28;20169;-75
2023/12/08 04:47:49;;;;;;;18.03;2.70;;;7.30;99.90;;;;;;5046275;28;20538;-75
2023/12/08 04:50:15;;;;;;;14.17;2.17;;;7.30;99.90;;;;;;5049381;28;20173;-75
2023/12/08 04:52:40;;;;;;;17.87;2.77;;;7.30;99.90;;;;;;5046284;28;20721;-75
2023/12/08 04:55:07;;;;;;;19.90;2.83;;;7.20;99.90;;;;;;5049827;28;20176;-75
2023/12/08 04:57:32;;;;;;;21.43;2.80;;;7.30;99.90;;;;;;5048774;28;20201;-76
2023/12/08 04:59:59;;;;;;;16.07;2.47;;;7.20;99.90;;;;;;5046137;28;20673;-76
2023/12/08 05:02:25;;;;;;;19.43;2.63;;;;;;;;;;5049168;28;20173;-76
2023/12/08 05:04:51;;;;;;;18.70;2.87;;;7.50;99.90;;;;;;5049648;28;20327;-75
2023/12/08 05:07:17;;;;;;;22.33;2.80;;;;;;;;;;5049150;28;20686;-75
2023/12/08 05:09:43;;;;;;;21.23;2.30;;;;;;;;;;5045852;28;20636;-75
2023/12/08 05:12:09;;;;;;;18.87;2.40;;;;;;;;;;5048776;28;20272;-75
2023/12/08 05:14:34;;;;;;;15.17;2.70;;;7.70;99.90;;;;;;5046266;28;20192;-76
2023/12/08 05:17:00;;;;;;;15.47;2.47;;;8.20;99.90;;;;;;5048499;28;20213;-75
2023/12/08 05:19:26;;;;;;;24.97;3.00;;;7.50;99.90;;;;;;5049393;28;20177;-75
2023/12/08 05:21:52;;;;;;;18.53;2.90;;;;;;;;;;5049100;28;20667;-75
2023/12/08 05:24:17;;;;;;;16.20;2.50;;;7.50;99.90;;;;;;5048605;28;20711;-75
2023/12/08 05:26:43;;;;;;;17.30;2.63;;;7.80;99.90;;;;;;5024832;28;20183;-75
2023/12/08 05:29:09;;;;;;;15.87;2.33;;;;;;;;;;5043146;28;20256;-76
2023/12/08 05:31:35;;;;;;;20.97;2.60;;;;;;;;;;5045939;28;20192;-77
2023/12/08 05:34:01;;;;;;;14.37;2.50;;;;;;;;;;5047345;28;20177;-75
2023/12/08 05:36:27;;;;;;;15.30;2.60;;;;;;;;;;5045990;28;20177;-75
2023/12/08 05:38:53;;;;;;;16.50;2.97;;;7.90;99.90;;;;;;5048125;28;20311;-76
2023/12/08 05:41:18;;;;;;;18.73;3.07;;;8.00;99.90;;;;;;5045044;28;20300;-77
2023/12/08 05:43:44;;;;;;;16.13;2.47;;;;;;;;;;5025186;28;20227;-76
2023/12/08 05:46:10;;;;;;;24.40;2.93;;;;;;;;;;5044239;28;20177;-75
2023/12/08 05:48:37;;;;;;;19.90;2.40;;;7.70;99.90;;;;;;5046100;28;20169;-76
2023/12/08 05:51:03;;;;;;;20.17;3.23;;;8.10;99.90;;;;;;5044663;28;20231;-76
2023/12/08 05:53:29;;;;;;;19.97;2.60;;;;;;;;;;5048515;28;20677;-76
2023/12/08 05:55:55;;;;;;;18.93;3.10;;;;;;;;;;5044356;28;20186;-76
2023/12/08 05:58:24;;;;;;;21.17;3.10;;;;;;;;;;5045717;28;20225;-77
2023/12/08 06:00:50;;;;;;;19.80;2.80;;;7.90;99.90;;;;;;5046634;28;20210;-76
2023/12/08 06:03:16;;;;;;;15.70;2.83;;;8.10;99.90;;;;;;5046553;28;20656;-75
2023/12/08 06:05:41;;;;;;;20.50;2.60;;;8.40;99.90;;;;;;5044149;28;20187;-77
2023/12/08 06:08:07;;;;;;;19.30;2.93;;;8.10;99.90;;;;;;5046519;28;20581;-77
2023/12/08 06:10:33;;;;;;;14.27;2.53;;;;;;;;;;5052194;28;20219;-77
2023/12/08 06:12:59;;;;;;;21.90;2.67;;;8.20;99.90;;;;;;5048428;28;20215;-76
2023/12/08 06:15:25;;;;;;;18.63;2.77;;;8.30;99.90;;;;;;5043976;28;20750;-76
2023/12/08 06:17:51;;;;;;;16.93;2.83;;;8.00;99.90;;;;;;5047581;28;20715;-77
2023/12/08 06:20:16;;;;;;;19.53;3.17;;;8.30;99.90;;;;;;5034298;28;20206;-77
2023/12/08 06:22:43;;;;;;;19.93;2.90;;;8.40;99.90;;;;;;5046180;28;20599;-77
2023/12/08 06:25:09;;;;;;;21.70;2.90;;;;;;;;;;5049334;28;20189;-77
2023/12/08 06:27:37;;;;;;;20.73;2.97;;;8.10;99.90;;;;;;5015955;28;20216;-77
2023/12/08 06:30:03;;;;;;;18.93;3.07;;;;;;;;;;5047577;28;20224;-77
2023/12/08 06:32:29;;;;;;;18.83;2.93;;;8.10;99.90;;;;;;5051194;28;20200;-78
2023/12/08 06:34:55;;;;;;;22.03;2.87;;;7.90;99.90;;;;;;5047235;28;20528;-77
2023/12/08 06:37:21;;;;;;;22.43;3.43;;;7.80;99.90;;;;;;5048468;28;20248;-77
2023/12/08 06:39:47;;;;;;;26.57;3.57;;;;;;;;;;5048635;28;20181;-77
2023/12/08 06:42:13;;;;;;;17.53;2.13;;;7.90;99.90;;;;;;5054391;28;20755;-76
2023/12/08 06:44:38;;;;;;;19.93;2.97;;;8.20;99.90;;;;;;5060413;28;20211;-77
2023/12/08 06:47:04;;;;;;;21.10;2.77;;;8.20;99.90;;;;;;5054042;28;20252;-76
2023/12/08 06:49:30;;;;;;;15.27;2.60;;;;;;;;;;5048297;28;20189;-77
2023/12/08 06:51:56;;;;;;;20.30;3.17;;;8.00;99.90;;;;;;5048768;28;20187;-76
2023/12/08 06:54:22;;;;;;;16.73;2.20;;;;;;;;;;5031260;28;20185;-76
2023/12/08 06:56:48;;;;;;;15.03;2.93;;;7.90;99.90;;;;;;5050022;28;20213;-76
2023/12/08 06:59:14;;;;;;;19.60;2.97;;;7.80;99.90;;;;;;5051494;28;20185;-76
2023/12/08 07:01:41;;;;;;;20.93;3.37;;;7.50;99.90;;;;;;5039052;28;20189;-76
2023/12/08 07:04:07;;;;;;;20.57;2.80;;;;;;;;;;5051583;28;20231;-76
2023/12/08 07:06:33;;;;;;;21.67;3.53;;;;;;;;;;5048553;28;20184;-76
2023/12/08 07:08:59;;;;;;;20.13;2.73;;;7.40;99.90;;;;;;5048846;28;20628;-76
2023/12/08 07:11:25;;;;;;;19.50;3.07;;;7.30;99.90;;;;;;5046928;28;20201;-77
2023/12/08 07:13:51;;;;;;;16.93;3.00;;;;;;;;;;5051631;28;20235;-75
2023/12/08 07:16:17;;;;;;;26.67;3.63;;;7.90;99.90;;;;;;5049356;28;20227;-79
2023/12/08 07:18:43;;;;;;;23.73;3.27;;;;;;;;;;5047902;28;20177;-77
2023/12/08 07:21:09;;;;;;;18.80;2.60;;;;;;;;;;5043352;28;20636;-79
2023/12/08 07:23:35;;;;;;;22.50;3.20;;;7.10;99.90;;;;;;5047817;28;20177;-77
2023/12/08 07:26:00;;;;;;;16.80;2.40;;;7.40;99.90;;;;;;5049756;28;20181;-82
2023/12/08 07:28:26;;;;;;;21.03;3.30;;;7.70;99.90;;;;;;5045447;28;20519;-83
2023/12/08 07:30:53;;;;;;;17.80;2.30;;;;;;;;;;5050153;28;20185;-77
2023/12/08 07:33:18;;;;;;;21.83;2.83;;;7.30;99.90;;;;;;5027971;28;20181;-77
2023/12/08 07:35:44;;;;;;;20.50;3.17;;;7.40;99.90;;;;;;5050983;28;20184;-77
2023/12/08 07:38:09;;;;;;;21.20;2.97;;;7.70;99.90;;;;;;5028828;28;20221;-77
2023/12/08 07:40:36;;;;;;;18.63;2.50;;;;;;;;;;5030301;28;20180;-77
2023/12/08 07:43:01;;;;;;;15.87;2.17;;;7.80;99.90;;;;;;5046182;28;20229;-78
2023/12/08 07:45:27;;;;;;;18.40;2.77;;;;;;;;;;5029107;28;20189;-79
2023/12/08 07:47:53;;;;;;;15.63;2.43;;;9.00;99.90;;;;;;5048679;28;20193;-77
2023/12/08 07:50:19;;;;;;;15.10;2.90;;;7.90;99.90;;;;;;5050729;28;20335;-79
2023/12/08 07:52:44;;;;;;;16.70;3.07;;;8.00;99.90;;;;;;5027325;28;20251;-79
2023/12/08 07:55:11;;;;;;;25.07;3.17;;;;;;;;;;5047561;28;20213;-78
2023/12/08 07:57:37;;;;;;;22.80;2.73;;;8.20;99.90;;;;;;5050174;28;20296;-78
2023/12/08 08:00:06;;;;;;;23.70;3.77;;;;;;;;;;5029014;28;20181;-77
2023/12/08 08:02:32;;;;;;;22.60;3.00;;;8.40;99.90;;;;;;5032101;28;20195;-73
2023/12/08 08:04:58;;;;;;;21.70;3.40;;;;;;;;;;5043421;28;20182;-76
2023/12/08 08:07:24;;;;;;;18.77;3.07;;;;;;;;;;5050213;28;20182;-77
2023/12/08 08:09:50;;;;;;;21.43;3.27;;;8.10;99.90;;;;;;5045387;28;20178;-77
2023/12/08 08:12:16;;;;;;;21.40;3.67;;;8.30;99.90;;;;;;5053314;28;20184;-78
2023/12/08 08:14:42;;;;;;;15.47;2.77;;;8.30;99.90;;;;;;5027741;28;20178;-76
2023/12/08 08:17:08;;;;;;;17.63;3.10;;;8.30;99.90;;;;;;5029144;28;20626;-76
2023/12/08 08:19:33;;;;;;;13.47;2.30;;;8.20;99.90;;;;;;5048340;28;21449;-77
2023/12/08 08:21:59;;;;;;;14.53;2.93;;;8.70;99.90;;;;;;5028131;28;20222;-76
2023/12/08 08:24:25;;;;;;;22.07;3.00;;;;;;;;;;5027489;28;20663;-79
2023/12/08 08:26:51;;;;;;;14.53;3.20;;;8.70;99.90;;;;;;5043490;28;20182;-80
2023/12/08 08:29:17;;;;;;;21.03;3.23;;;8.60;99.90;;;;;;5046499;28;20184;-80
2023/12/08 08:31:43;;;;;;;17.27;2.70;;;;;;;;;;5048743;28;20196;-76
2023/12/08 08:34:08;;;;;;;21.10;3.10;;;8.80;99.90;;;;;;5032267;28;20254;-76
2023/12/08 08:36:34;;;;;;;20.30;3.20;;;8.60;99.90;;;;;;5030212;28;20214;-75
2023/12/08 08:39:00;;;;;;;19.80;3.13;;;;;;;;;;5046063;28;20737;-78
2023/12/08 08:41:26;;;;;;;24.37;3.30;;;;;;;;;;5046007;28;20777;-76
2023/12/08 08:43:52;;;;;;;25.93;3.33;;;8.70;99.90;;;;;;5048246;28;20169;-77
2023/12/08 08:46:18;;;;;;;25.93;2.93;;;9.10;99.90;;;;;;5029289;28;20190;-76
2023/12/08 08:48:44;;;;;;;17.80;2.83;;;;;;;;;;5029599;28;20632;-76
2023/12/08 08:51:10;;;;;;;16.80;2.87;;;;;;;;;;5045200;28;20183;-77
2023/12/08 08:53:36;;;;;;;17.43;3.23;;;9.30;99.90;;;;;;5045495;28;20182;-77
2023/12/08 08:56:03;;;;;;;16.63;2.67;;;9.80;99.90;;;;;;5048641;28;20228;-78
2023/12/08 08:58:29;;;;;;;25.00;3.47;;;9.40;99.90;;;;;;5048272;28;20212;-76
2023/12/08 09:00:55;;;;;;;24.20;3.13;;;9.50;99.90;;;;;;5048278;28;20169;-83
2023/12/08 09:03:20;;;;;;;18.13;2.97;;;9.30;99.90;;;;;;5047604;28;20327;-81
2023/12/08 09:05:46;;;;;;;23.53;3.33;;;;;;;;;;5049668;28;20263;-78
2023/12/08 09:08:13;;;;;;;25.13;3.60;;;9.50;99.90;;;;;;5047461;28;20172;-71
2023/12/08 09:10:40;;;;;;;24.00;3.13;;;9.80;99.90;;;;;;5045710;28;20185;-74
2023/12/08 09:13:06;;;;;;;20.57;2.80;;;;;;;;;;5029573;28;20185;-73
2023/12/08 09:15:31;;;;;;;15.40;2.50;;;10.40;99.90;;;;;;5048895;28;20663;-73
2023/12/08 09:17:57;;;;;;;30.50;3.90;;;10.50;99.90;;;;;;5051256;28;20216;-74
2023/12/08 09:20:23;;;;;;;21.23;3.20;;;10.40;99.90;;;;;;5057475;28;20230;-74
2023/12/08 09:22:51;;;;;;;22.07;3.20;;;;;;;;;;5049024;28;20177;-73
2023/12/08 09:25:18;;;;;;;21.80;2.90;;;10.30;99.90;;;;;;5051067;28;20363;-73
2023/12/08 09:27:44;;;;;;;23.27;2.90;;;10.40;99.90;;;;;;5031862;28;20188;-72
2023/12/08 09:30:10;;;;;;;21.70;3.70;;;10.60;99.90;;;;;;5044994;28;20185;-74
2023/12/08 09:32:36;;;;;;;24.70;3.10;;;10.60;99.90;;;;;;5047620;28;20319;-73
2023/12/08 09:35:02;;;;;;;17.00;3.60;;;10.70;99.90;;;;;;5044682;28;20608;-72
2023/12/08 09:37:27;;;;;;;19.50;2.53;;;10.80;99.90;;;;;;5045906;28;20291;-73
2023/12/08 09:39:53;;;;;;;16.27;2.67;;;10.50;99.90;;;;;;5047640;28;20311;-73
2023/12/08 09:42:38;;;;;;;28.83;3.73;;;10.80;99.90;;;;;;5048697;28;20303;-75
2023/12/08 09:45:05;;;;;;;18.30;3.50;;;10.60;99.90;;;;;;5045200;28;20170;-74
2023/12/08 09:47:34;;;;;;;18.07;2.50;;;10.80;99.90;;;;;;5049963;28;20181;-74
2023/12/08 09:50:01;;;;;;;26.97;3.67;;;11.30;99.90;;;;;;5049580;28;20184;-74
2023/12/08 09:52:29;;;;;;;25.13;3.50;;;10.80;99.90;;;;;;5031771;28;20180;-74
2023/12/08 09:54:55;;;;;;;24.77;3.23;;;10.60;99.90;;;;;;5051138;28;20169;-74
2023/12/08 09:57:21;;;;;;;32.37;3.73;;;10.90;99.90;;;;;;5035518;28;20285;-74
2023/12/08 09:59:48;;;;;;;21.43;3.50;;;;;;;;;;5054410;28;20173;-74
2023/12/08 10:02:13;;;;;;;21.17;3.37;;;11.10;99.90;;;;;;5060688;28;20211;-74
2023/12/08 10:04:40;;;;;;;18.73;2.90;;;11.00;99.90;;;;;;5061750;28;20902;-74
2023/12/08 10:07:09;;;;;;;30.20;3.50;;;11.00;99.90;;;;;;5051111;28;20189;-74
2023/12/08 10:09:35;;;;;;;26.87;3.40;;;11.20;99.90;;;;;;5047950;28;20209;-75
2023/12/08 10:12:02;;;;;;;25.77;3.33;;;11.40;99.90;;;;;;5044771;28;20190;-75
2023/12/08 10:14:29;;;;;;;33.83;4.70;;;11.20;99.90;;;;;;5051681;28;20170;-74
2023/12/08 10:16:55;;;;;;;20.13;3.10;;;11.70;99.90;;;;;;5046085;28;20251;-75
2023/12/08 10:19:21;;;;;;;25.93;3.80;;;11.40;99.90;;;;;;5048225;28;20189;-74
2023/12/08 10:22:00;;;;;;;18.43;3.03;;;11.90;99.90;;;;;;5047344;28;20182;-75
2023/12/08 10:24:30;;;;;;;26.17;3.50;;;12.10;99.90;;;;;;5050551;28;20181;-75
2023/12/08 10:26:59;;;;;;;21.80;3.47;;;12.10;99.90;;;;;;5043840;28;20184;-77
2023/12/08 10:29:32;;;;;;;29.60;4.10;;;12.00;99.90;;;;;;5051203;28;20177;-75
2023/12/08 10:31:58;;;;;;;18.07;3.20;;;;;;;;;;5047172;28;20174;-76
2023/12/08 10:34:25;;;;;;;25.30;4.77;;;12.30;99.90;;;;;;5029836;28;20747;-76
2023/12/08 10:36:52;;;;;;;25.77;3.60;;;12.20;99.90;;;;;;5028570;28;20206;-77
2023/12/08 10:39:19;;;;;;;24.17;3.10;;;;;;;;;;5048656;28;20774;-76
2023/12/08 10:41:48;;;;;;;27.70;3.97;;;12.00;99.90;;;;;;5045711;28;20699;-76
2023/12/08 10:44:17;;;;;;;30.10;4.30;;;11.70;99.90;;;;;;5047027;28;20212;-77
2023/12/08 10:46:44;;;;;;;21.80;4.17;;;11.80;99.90;;;;;;5029637;28;20710;-75
2023/12/08 10:49:13;;;;;;;22.17;4.00;;;11.80;99.90;;;;;;5047547;28;20216;-75
2023/12/08 10:51:41;;;;;;;18.30;3.23;;;11.70;99.90;;;;;;5046187;28;20208;-75
2023/12/08 10:54:08;;;;;;;31.37;3.77;;;;;;;;;;5050280;28;20177;-77
2023/12/08 10:56:35;;;;;;;24.43;3.33;;;;;;;;;;5047434;28;20223;-74
2023/12/08 10:59:06;;;;;;;23.50;3.07;;;11.90;99.90;;;;;;5054813;28;20659;-75
2023/12/08 11:01:33;;;;;;;27.83;3.23;;;12.30;99.90;;;;;;5051473;28;20238;-75
2023/12/08 11:04:03;;;;;;;26.23;3.70;;;12.70;99.90;;;;;;5045258;28;20173;-77
2023/12/08 11:06:33;;;;;;;26.83;3.67;;;12.30;99.90;;;;;;5045927;28;20166;-77
2023/12/08 11:09:06;;;;;;;21.27;3.60;;;12.20;99.90;;;;;;5049380;28;20671;-77
2023/12/08 11:11:37;;;;;;;24.13;3.93;;;12.30;99.90;;;;;;5050630;28;20181;-79
2023/12/08 11:14:19;;;;;;;21.37;3.63;;;12.10;99.90;;;;;;5046866;28;20181;-82
2023/12/08 11:16:57;;;;;;;22.47;3.17;;;12.30;99.90;;;;;;5049650;28;20277;-82
2023/12/08 11:19:24;;;;;;;15.97;3.03;;;12.00;99.90;;;;;;5033341;28;20243;-79
2023/12/08 11:21:50;;;;;;;28.10;3.87;;;12.20;99.90;;;;;;5046471;28;20256;-80
2023/12/08 11:24:16;;;;;;;26.90;4.93;;;11.90;99.90;;;;;;5050066;28;20184;-79
2023/12/08 11:27:23;;;;;;;24.97;5.07;;;12.00;99.90;;;;;;5046995;28;20173;-83
2023/12/08 11:30:03;;;;;;;19.47;3.03;;;12.00;99.90;;;;;;4961772;28;20398;-80
2023/12/08 11:32:55;;;;;;;32.33;4.17;;;12.20;99.90;;;;;;4967499;28;20192;-79
2023/12/08 11:35:21;;;;;;;25.87;3.13;;;12.70;99.90;;;;;;5024606;28;20198;-79
2023/12/08 11:37:47;;;;;;;36.17;4.00;;;;;;;;;;5051374;28;20603;-81
2023/12/08 11:40:13;;;;;;;23.60;4.80;;;13.30;99.90;;;;;;5028606;28;20207;-82
2023/12/08 11:42:42;;;;;;;28.90;4.30;;;13.30;99.90;;;;;;5047760;28;20755;-79
2023/12/08 11:45:10;;;;;;;25.37;3.27;;;13.30;99.90;;;;;;5048799;28;20199;-79
2023/12/08 11:47:36;;;;;;;24.77;4.17;;;;;;;;;;5045425;28;20181;-76
2023/12/08 11:50:03;;;;;;;20.07;3.20;;;12.50;99.90;;;;;;5032412;28;20181;-81
2023/12/08 11:52:33;;;;;;;29.50;4.43;;;12.00;99.90;;;;;;5049580;28;20181;-80
2023/12/08 11:55:21;;;;;;;18.83;3.20;;;12.10;99.90;;;;;;5042330;28;20181;-75
2023/12/08 11:57:59;;;;;;;28.93;3.83;;;11.90;99.90;;;;;;5026825;28;20592;-79
2023/12/08 12:00:26;;;;;;;17.63;2.57;;;12.10;99.90;;;;;;5047152;28;20178;-82
2023/12/08 12:02:53;;;;;;;16.37;2.03;;;12.30;99.90;;;;;;5042747;28;20192;-77
2023/12/08 12:05:19;;;;;;;18.10;3.30;;;13.00;99.90;;;;;;5049404;28;20260;-81
2023/12/08 12:07:50;;;;;;;25.17;3.00;;;12.40;99.90;;;;;;5032018;28;20172;-77
2023/12/08 12:10:30;;;;;;;17.07;2.53;;;12.30;99.90;;;;;;5046227;28;20182;-80
2023/12/08 12:13:03;;;;;;;17.30;2.77;;;12.10;99.90;;;;;;5046603;28;20181;-78
2023/12/08 12:15:31;;;;;;;22.77;3.00;;;12.10;99.90;;;;;;5027831;28;20192;-78
2023/12/08 12:17:57;;;;;;;19.37;3.13;;;11.80;99.90;;;;;;5035998;28;20212;-79
2023/12/08 12:20:23;;;;;;;19.83;2.90;;;;;;;;;;5027029;28;20268;-80
2023/12/08 12:22:49;;;;;;;9.80;2.03;;;;;;;;;;5047195;28;20191;-77
2023/12/08 12:25:15;;;;;;;12.83;2.30;;;13.60;99.90;;;;;;5047621;28;20185;-82
2023/12/08 12:27:46;;;;;;;16.60;2.10;;;14.80;99.90;;;;;;5047975;28;20185;-83
2023/12/08 12:30:12;;;;;;;15.07;2.47;;;15.30;99.90;;;;;;5027389;28;20318;-77
2023/12/08 12:32:39;;;;;;;18.75;2.85;;;14.10;99.90;;;;;;5028736;28;20189;-76
2023/12/08 12:35:05;;;;;;;15.32;2.58;;;14.20;99.90;;;;;;5045331;28;20173;-83
2023/12/08 12:37:31;;;;;;;19.80;2.42;;;13.60;99.90;;;;;;5043138;28;20236;-80
2023/12/08 12:39:57;;;;;;;12.03;2.23;;;12.80;99.90;;;;;;5049417;28;20248;-81
2023/12/08 12:42:23;;;;;;;20.73;3.03;;;12.50;99.90;;;;;;5045531;28;20282;-79
2023/12/08 12:44:49;;;;;;;29.47;3.43;;;11.90;99.90;;;;;;5032331;28;20188;-80
2023/12/08 12:47:21;;;;;;;13.50;2.50;;;11.60;99.90;;;;;;5048173;28;20285;-79
2023/12/08 12:50:07;;;;;;;18.17;3.07;;;11.60;99.90;;;;;;5050295;28;20189;-80
2023/12/08 12:52:36;;;;;;;18.03;3.07;;;11.90;99.90;;;;;;5046582;28;20232;-82
2023/12/08 12:55:03;;;;;;;16.67;2.60;;;11.60;99.90;;;;;;5052254;28;20185;-82
2023/12/08 12:57:50;;;;;;;25.47;3.37;;;11.40;99.90;;;;;;5046760;28;20268;-81
2023/12/08 13:00:29;;;;;;;21.70;2.97;;;11.70;99.90;;;;;;5031130;28;20200;-81
2023/12/08 13:02:55;;;;;;;19.03;3.93;;;12.10;99.90;;;;;;5053412;28;20169;-80